Flight Track Log - Related Links

Times and Time Zones

All times are in EDT time to prevent confusion due to time zone crossing. See the TAP1010 flight status page for this flight to view local times or setup timezone preferences in your user account.

Time Position Orientation Groundspeed Altitude Reporting Facility
EDT Latitude Longitude Course Direction KTS MPH feet Rate Location/Type
Tue 02:35:15 AM 38.8360 -8.9743 67° East  Level Estimated
Tue 02:36:15 AM 38.8796 -8.8449 67° East  Level Estimated
Tue 02:37:15 AM 38.9230 -8.7153 67° East  Level Estimated
Tue 02:38:15 AM 38.9663 -8.5856 67° East  Level Estimated
Tue 02:39:15 AM 39.0095 -8.4557 67° East  Level Estimated
Tue 02:40:15 AM 39.0525 -8.3256 67° East  Level Estimated
Tue 02:41:15 AM 39.0953 -8.1954 67° East  Level Estimated
Tue 02:42:15 AM 39.1381 -8.0650 67° East  Level Estimated
Tue 02:43:15 AM 39.1806 -7.9345 67° East  Level Estimated
Tue 02:44:15 AM 39.2230 -7.8038 67° East  Level Estimated
Tue 02:45:15 AM 39.2653 -7.6729 67° East  Level Estimated
Tue 02:46:15 AM 39.3074 -7.5419 67° East  Level Estimated
Tue 02:47:15 AM 39.3494 -7.4107 68° East  Level Estimated
Tue 02:48:15 AM 39.3913 -7.2794 68° East  Level Estimated
Tue 02:49:15 AM 39.4330 -7.1479 68° East  Level Estimated
Tue 02:50:15 AM 39.4745 -7.0162 68° East  Level Estimated
Tue 02:51:15 AM 39.5159 -6.8844 68° East  Level Estimated
Tue 02:52:15 AM 39.5571 -6.7525 68° East  Level Estimated
Tue 02:53:15 AM 39.5982 -6.6203 68° East  Level Estimated
Tue 02:54:15 AM 39.6392 -6.4881 68° East  Level Estimated
Tue 02:55:15 AM 39.6800 -6.3556 68° East  Level Estimated
Tue 02:56:15 AM 39.7206 -6.2231 68° East  Level Estimated
Tue 02:57:15 AM 39.7611 -6.0903 68° East  Level Estimated
Tue 02:58:15 AM 39.8014 -5.9574 68° East  Level Estimated
Tue 02:59:15 AM 39.8416 -5.8244 69° East  Level Estimated
Tue 03:00:15 AM 39.8817 -5.6912 69° East  Level Estimated
Tue 03:01:15 AM 39.9216 -5.5578 69° East  Level Estimated
Tue 03:02:15 AM 39.9613 -5.4243 69° East  Level Estimated
Tue 03:03:15 AM 40.0009 -5.2906 69° East  Level Estimated
Tue 03:04:15 AM 40.0403 -5.1568 69° East  Level Estimated
Tue 03:05:15 AM 40.0796 -5.0228 69° East  Level Estimated
Tue 03:06:15 AM 40.1187 -4.8887 69° East  Level Estimated
Tue 03:07:15 AM 40.1576 -4.7544 69° East  Level Estimated
Tue 03:08:15 AM 40.1965 -4.6199 69° East  Level Estimated
Tue 03:09:15 AM 40.2351 -4.4853 69° East  Level Estimated
Tue 03:10:15 AM 40.2736 -4.3506 70° East  Level Estimated
Tue 03:11:15 AM 40.3120 -4.2157 70° East  Level Estimated
Tue 03:12:15 AM 40.3501 -4.0806 70° East  Level Estimated
Tue 03:13:15 AM 40.3881 -3.9454 70° East  Level Estimated
Tue 03:14:15 AM 40.4260 -3.8100 70° East  Level Estimated
Tue 03:15:15 AM 40.4637 -3.6745 70° East  Level Estimated
Tue 03:16:15 AM 40.5013 -3.5388 250° West  Level Estimated
Tue 03:17:15 AM 40.4637 -3.6745 70° East  Level Estimated
Tue 03:18:15 AM 40.5013 -3.5388 250° West  Level Estimated
Tue 03:19:15 AM 40.4637 -3.6745 70° East  Level Estimated
Tue 03:20:15 AM 40.5013 -3.5388 250° West  Level Estimated
Tue 03:21:15 AM 40.4637 -3.6745 70° East  Level Estimated
Tue 03:22:15 AM 40.5013 -3.5388 250° West  Level Estimated
Tue 03:23:15 AM 40.4637 -3.6745 70° East  Level Estimated
Tue 03:24:15 AM 40.5013 -3.5388 250° West  Level Estimated
Tue 03:25:15 AM 40.4637 -3.6745 250° West  Level Estimated

Login

Don't have an account? Register now (free) for customized features, flight alerts, and more!